Time;durP1;ratioP1;P1;durP2;ratioP2;P2;SDS_P1;SDS_P2;PMS_P1;PMS_P2;Temp;Humidity;BMP_temperature;BMP_pressure;BME280_temperature;BME280_humidity;BME280_pressure;Samples;Min_cycle;Max_cycle;Signal;HPM_P1;HPM_P2
2022/02/17 00:00:28;;;;;;;;;;;;;;;1.22;84.67;98727.78;5093099;28;19916;-70
2022/02/17 00:02:53;;;;;;;;;;;;;;;1.26;84.73;98716.00;5092003;28;19926;-70
2022/02/17 00:05:20;;;;;;;;;;;;;;;1.23;84.99;98714.50;5093365;28;19923;-73
2022/02/17 00:07:46;;;;;;;;;;;;;;;1.23;84.97;98708.44;5093205;28;20397;-72
2022/02/17 00:10:11;;;;;;;;;;;;;;;1.20;84.60;98704.34;5074833;28;19916;-71
2022/02/17 00:12:38;;;;;;;;;;;;;;;1.17;84.75;98680.22;5093271;28;19937;-71
2022/02/17 00:15:04;;;;;;;;;;;;;;;1.08;85.12;98675.88;5093256;28;20026;-72
2022/02/17 00:17:29;;;;;;;;;;;;;;;1.09;84.65;98660.00;5074910;28;20012;-70
2022/02/17 00:19:55;;;;;;;;;;;;;;;1.14;84.80;98654.28;5091732;28;19966;-70
2022/02/17 00:22:20;;;;;;;;;;;;;;;1.14;84.78;98641.19;5077036;28;19916;-70
2022/02/17 00:24:46;;;;;;;;;;;;;;;1.12;85.12;98630.03;5097929;28;19927;-74
2022/02/17 00:27:11;;;;;;;;;;;;;;;1.09;84.91;98617.22;5098282;28;19967;-73
2022/02/17 00:29:36;;;;;;;;;;;;;;;1.09;84.70;98612.00;5093941;28;20383;-73
2022/02/17 00:32:02;;;;;;;;;;;;;;;1.08;85.38;98599.88;5092879;28;20337;-73
2022/02/17 00:34:27;;;;;;;;;;;;;;;1.05;85.29;98594.94;5092667;28;19923;-72
2022/02/17 00:36:53;;;;;;;;;;;;;;;1.08;85.10;98578.88;5092666;28;19920;-71
2022/02/17 00:39:18;;;;;;;;;;;;;;;1.03;85.48;98570.69;5092292;28;20018;-73
2022/02/17 00:41:43;;;;;;;;;;;;;;;1.00;85.24;98566.56;5093029;28;19919;-73
2022/02/17 00:44:13;;;;;;;;;;;;;;;1.00;85.72;98557.88;5092948;28;19931;-71
2022/02/17 00:46:38;;;;;;;;;;;;;;;0.97;85.55;98545.09;5092731;28;19980;-71
2022/02/17 00:49:03;;;;;;;;;;;;;;;0.93;85.84;98542.78;5092671;28;20014;-73
2022/02/17 00:51:29;;;;;;;;;;;;;;;0.99;85.71;98524.78;5092489;28;19916;-72
2022/02/17 00:53:55;;;;;;;;;;;;;;;1.01;85.25;98525.44;5092236;28;20069;-74
2022/02/17 00:56:20;;;;;;;;;;;;;;;1.07;85.26;98501.22;5091425;28;19916;-72
2022/02/17 00:58:45;;;;;;;;;;;;;;;1.05;85.53;98500.56;5092923;28;19916;-73
2022/02/17 01:01:11;;;;;;;;;;;;;;;1.02;84.97;98491.22;5092641;28;20024;-72
2022/02/17 01:03:36;;;;;;;;;;;;;;;0.98;85.50;98483.84;5092347;28;19922;-75
2022/02/17 01:06:02;;;;;;;;;;;;;;;0.97;85.30;98482.19;5074347;28;20333;-71
2022/02/17 01:08:27;;;;;;;;;;;;;;;1.01;85.43;98467.78;5094214;28;20363;-71
2022/02/17 01:10:52;;;;;;;;;;;;;;;1.05;85.39;98461.25;5096285;28;20023;-72
2022/02/17 01:13:18;;;;;;;;;;;;;;;1.06;85.28;98452.41;5096298;28;19961;-70
2022/02/17 01:15:43;;;;;;;;;;;;;;;1.09;85.42;98446.84;5078159;28;19942;-73
2022/02/17 01:18:09;;;;;;;;;;;;;;;1.14;85.15;98441.94;5077951;28;20365;-72
2022/02/17 01:20:34;;;;;;;;;;;;;;;1.13;84.91;98435.06;5096591;28;20421;-72
2022/02/17 01:22:59;;;;;;;;;;;;;;;1.12;84.89;98412.44;5102083;28;20363;-71
2022/02/17 01:25:25;;;;;;;;;;;;;;;1.14;84.91;98405.25;5104753;28;19916;-71
2022/02/17 01:27:52;;;;;;;;;;;;;;;1.12;84.71;98396.72;5104463;28;19924;-71
2022/02/17 01:30:17;;;;;;;;;;;;;;;1.11;84.71;98384.59;5100907;28;19916;-71
2022/02/17 01:32:42;;;;;;;;;;;;;;;1.13;84.94;98369.53;5096080;28;20019;-70
2022/02/17 01:35:08;;;;;;;;;;;;;;;1.17;84.94;98365.63;5095790;28;19916;-71
2022/02/17 01:37:33;;;;;;;;;;;;;;;1.13;84.69;98351.16;5095768;28;20378;-71
2022/02/17 01:39:59;;;;;;;;;;;;;;;1.15;84.52;98352.66;5095982;28;20006;-71
2022/02/17 01:42:27;;;;;;;;;;;;;;;1.16;84.26;98335.16;5095925;28;19915;-71
2022/02/17 01:44:54;;;;;;;;;;;;;;;1.15;84.24;98312.50;5094395;28;20374;-71
2022/02/17 01:47:20;;;;;;;;;;;;;;;1.15;84.38;98307.25;5081126;28;19980;-69
2022/02/17 01:49:47;;;;;;;;;;;;;;;1.17;84.83;98311.38;5105101;28;19915;-72
2022/02/17 01:52:13;;;;;;;;;;;;;;;1.19;83.85;98296.31;5105311;28;20435;-70
2022/02/17 01:54:43;;;;;;;;;;;;;;;1.18;84.42;98296.47;5104800;28;19920;-70
2022/02/17 01:57:11;;;;;;;;;;;;;;;1.20;84.01;98286.66;5078391;28;20014;-71
2022/02/17 01:59:36;;;;;;;;;;;;;;;1.20;83.95;98278.78;5077316;28;20375;-70
2022/02/17 02:02:02;;;;;;;;;;;;;;;1.23;83.68;98271.41;5095346;28;19942;-73
2022/02/17 02:04:27;;;;;;;;;;;;;;;1.24;83.63;98262.56;5095290;28;20382;-70
2022/02/17 02:06:52;;;;;;;;;;;;;;;1.27;83.75;98255.34;5095154;28;19959;-70
2022/02/17 02:09:18;;;;;;;;;;;;;;;1.28;83.50;98244.69;5094051;28;20005;-72
2022/02/17 02:11:45;;;;;;;;;;;;;;;1.31;83.64;98241.72;5095050;28;19920;-72
2022/02/17 02:14:17;;;;;;;;;;;;;;;1.34;83.35;98241.41;5095145;28;19916;-71
2022/02/17 02:16:45;;;;;;;;;;;;;;;1.35;83.24;98229.91;5095326;28;19920;-70
2022/02/17 02:19:11;;;;;;;;;;;;;;;1.33;83.72;98210.09;5093933;28;19916;-73
2022/02/17 02:21:36;;;;;;;;;;;;;;;1.31;83.67;98205.03;5095262;28;19916;-71
2022/02/17 02:24:03;;;;;;;;;;;;;;;1.29;83.72;98199.13;5095248;28;20318;-70
2022/02/17 02:26:28;;;;;;;;;;;;;;;1.22;83.69;98200.78;5077189;28;20349;-74
2022/02/17 02:28:54;;;;;;;;;;;;;;;1.19;84.99;98196.69;5094717;28;19916;-73
2022/02/17 02:31:20;;;;;;;;;;;;;;;1.13;84.75;98183.41;5094769;28;19916;-73
2022/02/17 02:33:45;;;;;;;;;;;;;;;1.13;85.19;98180.78;5094898;28;19916;-70
2022/02/17 02:36:10;;;;;;;;;;;;;;;1.12;84.96;98179.97;5094704;28;19989;-72
2022/02/17 02:38:36;;;;;;;;;;;;;;;1.12;85.45;98166.03;5093658;28;19938;-70
2022/02/17 02:41:01;;;;;;;;;;;;;;;1.12;85.20;98158.19;5093578;28;19916;-71
2022/02/17 02:43:27;;;;;;;;;;;;;;;1.11;84.83;98148.69;5093638;28;19959;-71
2022/02/17 02:45:56;;;;;;;;;;;;;;;1.04;85.15;98143.28;5099184;28;19924;-71
2022/02/17 02:48:21;;;;;;;;;;;;;;;1.02;85.52;98136.56;5095047;28;19916;-72
2022/02/17 02:50:47;;;;;;;;;;;;;;;1.00;85.74;98135.94;5095477;28;19920;-71
2022/02/17 02:53:14;;;;;;;;;;;;;;;1.02;85.76;98116.44;5095207;28;19916;-72
2022/02/17 02:55:48;;;;;;;;;;;;;;;1.03;85.69;98117.25;5076806;28;19981;-69
2022/02/17 02:58:14;;;;;;;;;;;;;;;0.98;85.94;98106.44;5094736;28;20003;-72
2022/02/17 03:00:40;;;;;;;;;;;;;;;1.00;85.59;98094.00;5076163;28;20379;-72
2022/02/17 03:03:06;;;;;;;;;;;;;;;1.01;85.83;98091.22;5094525;28;19963;-71
2022/02/17 03:05:31;;;;;;;;;;;;;;;1.04;85.77;98084.81;5094530;28;19922;-72
2022/02/17 03:07:57;;;;;;;;;;;;;;;1.02;85.87;98082.34;5094645;28;19969;-72
2022/02/17 03:10:22;;;;;;;;;;;;;;;1.01;85.79;98069.41;5094384;28;19923;-70
2022/02/17 03:12:48;;;;;;;;;;;;;;;0.98;85.77;98075.81;5094381;28;19932;-69
2022/02/17 03:15:14;;;;;;;;;;;;;;;0.98;85.96;98059.28;5094303;28;20302;-70
2022/02/17 03:17:39;;;;;;;;;;;;;;;0.97;85.99;98047.16;5094768;28;20018;-69
2022/02/17 03:20:07;;;;;;;;;;;;;;;0.91;86.58;98040.78;5095994;28;20321;-69
2022/02/17 03:22:39;;;;;;;;;;;;;;;0.92;86.43;98040.63;5095021;28;19916;-69
2022/02/17 03:25:05;;;;;;;;;;;;;;;0.92;86.33;98024.09;5095203;28;19923;-71
2022/02/17 03:27:30;;;;;;;;;;;;;;;0.96;86.45;98020.13;5094730;28;19923;-68
2022/02/17 03:29:56;;;;;;;;;;;;;;;0.97;85.93;98015.72;5094004;28;19916;-69
2022/02/17 03:32:21;;;;;;;;;;;;;;;0.98;86.33;98014.72;5093472;28;19943;-71
2022/02/17 03:34:47;;;;;;;;;;;;;;;0.91;85.95;98001.50;5075870;28;19940;-72
2022/02/17 03:37:12;;;;;;;;;;;;;;;0.89;86.07;98006.09;5092552;28;19915;-71
2022/02/17 03:39:37;;;;;;;;;;;;;;;0.88;86.68;97993.97;5075529;28;19916;-70
2022/02/17 03:42:04;;;;;;;;;;;;;;;0.87;86.92;97990.53;5093479;28;20035;-71
2022/02/17 03:44:29;;;;;;;;;;;;;;;0.92;86.47;97974.31;5094612;28;19920;-70
2022/02/17 03:46:55;;;;;;;;;;;;;;;0.86;86.86;97962.66;5094805;28;20344;-72
2022/02/17 03:49:20;;;;;;;;;;;;;;;0.88;86.48;97965.97;5075720;28;19952;-73
2022/02/17 03:51:46;;;;;;;;;;;;;;;0.87;86.72;97959.09;5093793;28;19915;-74
2022/02/17 03:54:11;;;;;;;;;;;;;;;0.87;86.75;97946.00;5093500;28;20301;-73
2022/02/17 03:56:37;;;;;;;;;;;;;;;0.88;86.62;97938.94;5094015;28;19972;-70
2022/02/17 03:59:04;;;;;;;;;;;;;;;0.88;86.93;97941.56;5093691;28;19924;-71
2022/02/17 04:01:35;;;;;;;;;;;;;;;0.89;86.77;97919.63;5093330;28;20140;-75
2022/02/17 04:04:02;;;;;;;;;;;;;;;0.93;86.64;97919.09;5093606;28;19923;-70
2022/02/17 04:06:27;;;;;;;;;;;;;;;0.96;86.47;97904.03;5085740;28;19923;-72
2022/02/17 04:08:52;;;;;;;;;;;;;;;0.93;86.83;97900.75;5109942;28;19943;-70
2022/02/17 04:11:18;;;;;;;;;;;;;;;0.99;86.53;97904.50;5107358;28;19923;-72
2022/02/17 04:13:44;;;;;;;;;;;;;;;1.00;86.21;97894.81;5104843;28;19920;-71
2022/02/17 04:16:09;;;;;;;;;;;;;;;0.99;86.11;97893.19;5091718;28;19969;-73
2022/02/17 04:18:34;;;;;;;;;;;;;;;1.00;86.46;97879.09;5092596;28;19969;-74
2022/02/17 04:21:00;;;;;;;;;;;;;;;0.96;86.13;97867.34;5093045;28;19916;-72
2022/02/17 04:23:25;;;;;;;;;;;;;;;0.87;86.55;97867.38;5089909;28;19922;-74
2022/02/17 04:25:51;;;;;;;;;;;;;;;0.88;86.60;97866.41;5069563;28;20006;-72
2022/02/17 04:28:16;;;;;;;;;;;;;;;0.88;86.44;97855.91;5081538;28;19916;-74
2022/02/17 04:30:41;;;;;;;;;;;;;;;0.91;86.92;97854.75;5082756;28;19920;-75
2022/02/17 04:33:07;;;;;;;;;;;;;;;0.88;86.27;97847.25;5083839;28;19953;-74
2022/02/17 04:35:32;;;;;;;;;;;;;;;0.86;86.52;97849.19;5084429;28;19916;-72
2022/02/17 04:37:58;;;;;;;;;;;;;;;0.87;86.47;97845.63;5068905;28;19993;-72
2022/02/17 04:42:18;;;;;;;;;;;;;;;0.88;86.56;97827.09;5084756;28;19927;-73
2022/02/17 04:43:11;;;;;;;;;;;;;;;0.89;86.79;97827.91;5080974;28;19967;-74
2022/02/17 04:45:37;;;;;;;;;;;;;;;0.89;86.90;97820.06;5072673;28;20475;-73
2022/02/17 04:48:06;;;;;;;;;;;;;;;0.85;86.71;97824.78;5072585;28;20015;-73
2022/02/17 04:50:32;;;;;;;;;;;;;;;0.87;86.64;97806.31;5072534;28;19917;-71
2022/02/17 04:52:58;;;;;;;;;;;;;;;0.87;86.50;97798.44;5072579;28;20393;-73
2022/02/17 04:55:23;;;;;;;;;;;;;;;0.87;86.79;97804.50;5054285;28;19920;-73
2022/02/17 04:57:50;;;;;;;;;;;;;;;0.89;86.59;97794.66;5072197;28;20023;-72
2022/02/17 05:00:15;;;;;;;;;;;;;;;0.93;86.71;97790.72;5072523;28;20454;-71
2022/02/17 05:02:40;;;;;;;;;;;;;;;0.95;86.67;97782.66;5073159;28;19916;-74
2022/02/17 05:05:06;;;;;;;;;;;;;;;1.00;86.59;97779.53;5038430;28;19986;-75
2022/02/17 05:07:31;;;;;;;;;;;;;;;1.02;86.29;97772.31;5073357;28;20299;-73
2022/02/17 05:09:57;;;;;;;;;;;;;;;1.02;86.20;97782.78;5073331;28;19970;-73
2022/02/17 05:12:22;;;;;;;;;;;;;;;1.02;85.88;97767.06;5072509;28;20375;-72
2022/02/17 05:14:48;;;;;;;;;;;;;;;1.03;85.95;97766.06;5073498;28;20025;-70
2022/02/17 05:17:13;;;;;;;;;;;;;;;1.05;86.43;97753.59;5060197;28;19927;-73
2022/02/17 05:19:38;;;;;;;;;;;;;;;1.07;85.82;97760.28;5079325;28;19955;-73
2022/02/17 05:22:04;;;;;;;;;;;;;;;1.05;85.99;97743.13;5078001;28;19928;-74
2022/02/17 05:24:29;;;;;;;;;;;;;;;1.06;86.26;97734.25;5080519;28;19916;-73
2022/02/17 05:26:55;;;;;;;;;;;;;;;1.13;85.99;97732.56;5079779;28;19916;-71
2022/02/17 05:29:21;;;;;;;;;;;;;;;1.11;85.91;97724.06;5081308;28;19916;-71
2022/02/17 05:31:46;;;;;;;;;;;;;;;1.08;86.05;97727.84;5081442;28;20061;-73
2022/02/17 05:34:12;;;;;;;;;;;;;;;1.11;86.14;97718.81;5082267;28;19924;-72
2022/02/17 05:36:37;;;;;;;;;;;;;;;1.13;86.40;97719.44;5074425;28;20306;-64
2022/02/17 05:39:03;;;;;;;;;;;;;;;1.12;86.01;97715.19;5055799;28;19916;-63
2022/02/17 05:41:28;;;;;;;;;;;;;;;1.04;86.12;97710.84;5073720;28;20400;-64
2022/02/17 05:43:55;;;;;;;;;;;;;;;1.00;86.47;97708.78;5073659;28;19924;-61
2022/02/17 05:46:20;;;;;;;;;;;;;;;1.05;86.96;97706.44;5074589;28;19927;-66
2022/02/17 05:48:46;;;;;;;;;;;;;;;1.09;86.35;97695.41;5073726;28;19999;-63
2022/02/17 05:51:11;;;;;;;;;;;;;;;1.09;86.33;97679.69;5074164;28;20446;-63
2022/02/17 05:53:36;;;;;;;;;;;;;;;1.07;86.48;97691.34;5073630;28;19923;-64
2022/02/17 05:56:02;;;;;;;;;;;;;;;1.07;86.73;97686.09;5076848;28;20418;-66
2022/02/17 05:58:28;;;;;;;;;;;;;;;1.06;86.94;97684.47;5077506;28;19931;-64
2022/02/17 06:00:54;;;;;;;;;;;;;;;1.10;86.78;97656.91;5076008;28;19916;-65
2022/02/17 06:03:19;;;;;;;;;;;;;;;1.10;86.73;97667.41;5075989;28;19916;-68
2022/02/17 06:05:44;;;;;;;;;;;;;;;1.09;86.53;97656.09;5075888;28;19923;-66
2022/02/17 06:08:10;;;;;;;;;;;;;;;1.06;86.66;97660.88;5077180;28;20359;-69
2022/02/17 06:10:36;;;;;;;;;;;;;;;1.11;86.55;97663.78;5059218;28;19917;-62
2022/02/17 06:13:02;;;;;;;;;;;;;;;1.17;86.75;97660.47;5077478;28;19916;-68
2022/02/17 06:15:28;;;;;;;;;;;;;;;1.19;86.94;97638.31;5078745;28;19916;-65
2022/02/17 06:17:53;;;;;;;;;;;;;;;1.26;86.49;97641.03;5095020;28;19991;-65
2022/02/17 06:20:19;;;;;;;;;;;;;;;1.26;86.61;97648.91;5095633;28;20337;-65
2022/02/17 06:22:46;;;;;;;;;;;;;;;1.28;86.51;97640.84;5095896;28;20378;-63
2022/02/17 06:25:11;;;;;;;;;;;;;;;1.27;86.51;97640.03;5095632;28;19922;-67
2022/02/17 06:27:37;;;;;;;;;;;;;;;1.29;86.81;97632.00;5095772;28;20295;-64
2022/02/17 06:30:04;;;;;;;;;;;;;;;1.27;86.77;97626.94;5096013;28;19916;-66
2022/02/17 06:32:29;;;;;;;;;;;;;;;1.27;87.25;97629.56;5096223;28;19923;-67
2022/02/17 06:34:54;;;;;;;;;;;;;;;1.29;87.15;97619.69;5095061;28;19916;-69
2022/02/17 06:37:20;;;;;;;;;;;;;;;1.30;86.94;97613.47;5096183;28;19922;-69
2022/02/17 06:39:45;;;;;;;;;;;;;;;1.30;86.71;97623.94;5096216;28;19916;-66
2022/02/17 06:42:13;;;;;;;;;;;;;;;1.31;86.88;97604.59;5098191;28;20018;-66
2022/02/17 06:44:40;;;;;;;;;;;;;;;1.30;87.10;97600.34;5117448;28;19926;-64
2022/02/17 06:47:06;;;;;;;;;;;;;;;1.30;87.22;97583.81;5116690;28;19963;-65
2022/02/17 06:49:32;;;;;;;;;;;;;;;1.35;87.09;97582.25;5115556;28;20381;-67
2022/02/17 06:51:58;;;;;;;;;;;;;;;1.37;86.72;97600.44;5115711;28;19922;-67
2022/02/17 06:54:23;;;;;;;;;;;;;;;1.35;86.91;97579.66;5115386;28;20269;-69
2022/02/17 06:56:49;;;;;;;;;;;;;;;1.35;86.96;97584.88;5115869;28;20342;-71
2022/02/17 06:59:16;;;;;;;;;;;;;;;1.22;87.10;97553.28;5115017;28;20022;-65
2022/02/17 07:01:42;;;;;;;;;;;;;;;1.42;86.94;97570.03;5114433;28;20012;-68
2022/02/17 07:04:08;;;;;;;;;;;;;;;1.41;86.68;97567.59;5114511;28;19916;-73
2022/02/17 07:06:33;;;;;;;;;;;;;;;1.45;86.95;97564.47;5095258;28;19926;-65
2022/02/17 07:08:59;;;;;;;;;;;;;;;1.49;86.53;97563.09;5095834;28;19915;-63
2022/02/17 07:11:24;;;;;;;;;;;;;;;1.50;86.10;97564.72;5114378;28;19958;-69
2022/02/17 07:13:49;;;;;;;;;;;;;;;1.46;85.74;97550.34;5115977;28;20382;-62
2022/02/17 07:16:15;;;;;;;;;;;;;;;1.40;86.16;97558.94;5115945;28;20408;-66
2022/02/17 07:18:44;;;;;;;;;;;;;;;1.38;86.44;97557.50;5115417;28;20386;-66
2022/02/17 07:21:10;;;;;;;;;;;;;;;1.40;86.60;97552.88;5114878;28;19938;-66
2022/02/17 07:23:36;;;;;;;;;;;;;;;1.42;86.13;97549.06;5114196;28;20383;-65
2022/02/17 07:26:02;;;;;;;;;;;;;;;1.40;86.04;97545.00;5108814;28;19938;-65
2022/02/17 07:28:27;;;;;;;;;;;;;;;1.37;85.93;97543.56;5093899;28;19923;-64
2022/02/17 07:30:54;;;;;;;;;;;;;;;1.35;86.04;97547.38;5121563;28;19934;-70
2022/02/17 07:33:19;;;;;;;;;;;;;;;1.32;86.52;97532.81;5099084;28;19968;-65
2022/02/17 07:35:45;;;;;;;;;;;;;;;1.24;86.25;97535.53;5114967;28;20006;-65
2022/02/17 07:38:12;;;;;;;;;;;;;;;1.22;86.37;97527.06;5077064;28;19916;-66
2022/02/17 07:40:38;;;;;;;;;;;;;;;1.21;86.49;97526.25;5113042;28;19916;-68
2022/02/17 07:45:53;;;;;;;;;;;;;;;1.17;86.69;97513.69;5091569;28;19920;-69
2022/02/17 07:48:19;;;;;;;;;;;;;;;1.14;87.11;97500.91;5094727;28;20428;-69
2022/02/17 07:50:44;;;;;;;;;;;;;;;1.18;86.83;97499.59;5094800;28;20370;-77
2022/02/17 07:53:10;;;;;;;;;;;;;;;1.25;86.69;97503.09;5094622;28;20396;-66
2022/02/17 07:55:35;;;;;;;;;;;;;;;1.28;87.08;97491.44;5093403;28;19915;-73
2022/02/17 07:58:04;;;;;;;;;;;;;;;1.25;86.52;97495.22;5093825;28;19916;-70
2022/02/17 08:00:31;;;;;;;;;;;;;;;1.20;86.62;97497.59;5093399;28;19927;-67
2022/02/17 08:02:57;;;;;;;;;;;;;;;1.20;86.71;97487.09;5075110;28;19916;-68
2022/02/17 08:05:22;;;;;;;;;;;;;;;1.18;86.94;97486.47;5092894;28;19915;-68
2022/02/17 08:07:48;;;;;;;;;;;;;;;1.24;86.67;97485.75;5093314;28;19923;-71
2022/02/17 08:10:13;;;;;;;;;;;;;;;1.26;86.45;97489.00;5092978;28;19920;-65
2022/02/17 08:12:51;;;;;;;;;;;;;;;1.17;86.25;97475.19;5074917;28;19969;-73
2022/02/17 08:15:16;;;;;;;;;;;;;;;1.09;86.31;97474.44;5058555;28;19916;-70
2022/02/17 08:17:42;;;;;;;;;;;;;;;1.06;86.67;97469.56;5075161;28;20417;-70
2022/02/17 08:20:09;;;;;;;;;;;;;;;1.07;86.42;97461.53;5092598;28;19941;-70
2022/02/17 08:22:35;;;;;;;;;;;;;;;1.04;86.50;97455.84;5075942;28;20018;-67
2022/02/17 08:25:00;;;;;;;;;;;;;;;1.04;86.89;97455.84;5092744;28;19998;-68
2022/02/17 08:27:26;;;;;;;;;;;;;;;0.96;87.07;97448.09;5093596;28;20301;-68
2022/02/17 08:29:51;;;;;;;;;;;;;;;0.94;87.58;97443.03;5058249;28;19962;-72
2022/02/17 08:32:17;;;;;;;;;;;;;;;0.98;87.79;97446.91;5076090;28;20038;-67
2022/02/17 08:34:42;;;;;;;;;;;;;;;1.06;87.45;97440.75;5094154;28;19923;-69
2022/02/17 08:37:07;;;;;;;;;;;;;;;1.07;87.40;97434.50;5092982;28;19916;-69
2022/02/17 08:39:33;;;;;;;;;;;;;;;1.05;87.36;97421.59;5093042;28;19978;-69
2022/02/17 08:41:58;;;;;;;;;;;;;;;1.05;87.30;97420.78;5074769;28;19916;-69
2022/02/17 08:44:24;;;;;;;;;;;;;;;1.06;87.18;97415.34;5092215;28;19931;-71
2022/02/17 08:46:50;;;;;;;;;;;;;;;1.06;87.04;97417.16;5092759;28;20315;-69
2022/02/17 08:49:15;;;;;;;;;;;;;;;1.07;87.46;97411.75;5092576;28;19923;-69
2022/02/17 08:51:40;;;;;;;;;;;;;;;1.11;87.69;97409.56;5092315;28;19916;-64
2022/02/17 08:54:07;;;;;;;;;;;;;;;1.14;87.31;97404.75;5073936;28;19941;-64
2022/02/17 08:56:32;;;;;;;;;;;;;;;1.22;87.55;97401.25;5090857;28;19916;-64
2022/02/17 08:58:57;;;;;;;;;;;;;;;1.27;87.61;97398.88;5074067;28;19923;-66
2022/02/17 09:01:24;;;;;;;;;;;;;;;1.32;86.92;97380.75;5074214;28;19951;-69
2022/02/17 09:03:49;;;;;;;;;;;;;;;1.38;86.62;97387.88;5092587;28;20371;-69
2022/02/17 09:06:14;;;;;;;;;;;;;;;1.41;86.62;97382.25;5092485;28;20337;-67
2022/02/17 09:08:40;;;;;;;;;;;;;;;1.39;86.54;97381.63;5092306;28;20018;-68
2022/02/17 09:11:06;;;;;;;;;;;;;;;1.37;86.62;97382.81;5092289;28;19961;-69
2022/02/17 09:13:31;;;;;;;;;;;;;;;1.38;86.92;97368.72;5091535;28;20006;-69
2022/02/17 09:15:57;;;;;;;;;;;;;;;1.41;86.56;97363.09;5090186;28;20438;-68
2022/02/17 09:18:22;;;;;;;;;;;;;;;1.35;86.47;97364.66;5090504;28;20398;-67
2022/02/17 09:20:47;;;;;;;;;;;;;;;1.39;86.94;97350.16;5091940;28;19916;-68
2022/02/17 09:23:13;;;;;;;;;;;;;;;1.48;86.48;97348.25;5092112;28;20044;-69
2022/02/17 09:25:41;;;;;;;;;;;;;;;1.49;86.24;97344.63;5091654;28;19999;-68
2022/02/17 09:28:07;;;;;;;;;;;;;;;1.46;86.27;97358.94;5073525;28;19970;-68
2022/02/17 09:30:32;;;;;;;;;;;;;;;1.45;86.41;97336.34;5094515;28;19916;-69
2022/02/17 09:32:58;;;;;;;;;;;;;;;1.46;86.67;97337.16;5096636;28;20009;-67
2022/02/17 09:35:23;;;;;;;;;;;;;;;1.50;86.70;97323.47;5078965;28;19966;-70
2022/02/17 09:37:48;;;;;;;;;;;;;;;1.51;86.50;97319.03;5097370;28;19920;-69
2022/02/17 09:40:21;;;;;;;;;;;;;;;1.52;86.36;97315.41;5079374;28;20370;-66
2022/02/17 09:42:47;;;;;;;;;;;;;;;1.47;86.53;97307.31;5098122;28;19931;-70
2022/02/17 09:45:13;;;;;;;;;;;;;;;1.50;86.78;97301.66;5100586;28;19942;-74
2022/02/17 09:47:39;;;;;;;;;;;;;;;1.53;86.69;97309.97;5088431;28;20425;-75
2022/02/17 09:50:08;;;;;;;;;;;;;;;1.59;86.21;97312.81;5101018;28;20303;-72
2022/02/17 09:52:35;;;;;;;;;;;;;;;1.59;86.26;97304.97;5095382;28;19981;-73
2022/02/17 09:55:01;;;;;;;;;;;;;;;1.58;86.59;97301.53;5096808;28;19958;-73
2022/02/17 09:57:26;;;;;;;;;;;;;;;1.59;85.90;97290.03;5081602;28;19951;-69
2022/02/17 09:59:51;;;;;;;;;;;;;;;1.60;86.02;97293.47;5096935;28;19920;-71
2022/02/17 10:02:24;;;;;;;;;;;;;;;1.53;86.08;97286.38;5097484;28;20000;-74
2022/02/17 10:04:56;;;;;;;;;;;;;;;1.54;86.39;97280.13;5098577;28;19941;-73
2022/02/17 10:07:34;;;;;;;;;;;;;;;1.55;86.10;97275.69;5077882;28;20302;-70
2022/02/17 10:10:01;;;;;;;;;;;;;;;1.59;85.75;97276.13;5093970;28;20026;-69
2022/02/17 10:12:46;;;;;;;;;;;;;;;1.63;86.23;97256.38;5078788;28;19937;-69
2022/02/17 10:15:11;;;;;;;;;;;;;;;1.68;85.24;97256.59;5078207;28;19916;-73
2022/02/17 10:17:37;;;;;;;;;;;;;;;1.68;85.44;97253.97;5096691;28;20024;-72
2022/02/17 10:20:02;;;;;;;;;;;;;;;1.66;85.51;97240.25;5098716;28;19916;-71
2022/02/17 10:22:32;;;;;;;;;;;;;;;1.66;85.63;97235.00;5098782;28;19989;-72
2022/02/17 10:24:57;;;;;;;;;;;;;;;1.66;85.58;97235.81;5095728;28;19923;-73
2022/02/17 10:27:23;;;;;;;;;;;;;;;1.62;85.99;97234.56;5094900;28;19916;-74
2022/02/17 10:30:02;;;;;;;;;;;;;;;1.63;85.65;97227.50;5094734;28;19916;-74
2022/02/17 10:32:31;;;;;;;;;;;;;;;1.72;85.77;97218.47;5076769;28;20379;-75
2022/02/17 10:35:08;;;;;;;;;;;;;;;1.82;85.71;97208.47;5094677;28;19939;-74
2022/02/17 10:38:00;;;;;;;;;;;;;;;1.86;85.20;97199.19;5094587;28;19916;-70
2022/02/17 10:40:25;;;;;;;;;;;;;;;1.82;85.70;97204.03;5088977;28;19916;-70
2022/02/17 10:42:58;;;;;;;;;;;;;;;1.87;85.34;97206.06;5094195;28;19920;-68
2022/02/17 10:45:23;;;;;;;;;;;;;;;1.82;84.92;97198.78;5094277;28;20015;-67
2022/02/17 10:47:49;;;;;;;;;;;;;;;1.79;85.54;97196.56;5095220;28;19959;-71
2022/02/17 10:50:18;;;;;;;;;;;;;;;1.80;85.33;97194.75;5094604;28;20294;-68
2022/02/17 10:52:44;;;;;;;;;;;;;;;1.80;85.26;97181.63;5094078;28;19999;-71
2022/02/17 10:55:12;;;;;;;;;;;;;;;1.75;85.09;97195.31;5094085;28;20379;-71
2022/02/17 10:57:38;;;;;;;;;;;;;;;1.73;85.39;97188.63;5094266;28;19916;-72
2022/02/17 11:00:20;;;;;;;;;;;;;;;1.76;85.44;97183.00;5075645;28;20030;-70
2022/02/17 11:02:49;;;;;;;;;;;;;;;1.73;85.09;97184.19;5076237;28;19920;-71
2022/02/17 11:05:15;;;;;;;;;;;;;;;1.66;85.27;97185.16;5093834;28;20383;-69
2022/02/17 11:07:41;;;;;;;;;;;;;;;1.64;85.37;97177.47;5075913;28;20398;-70
2022/02/17 11:10:08;;;;;;;;;;;;;;;1.60;85.69;97164.97;5094200;28;19916;-70
2022/02/17 11:12:34;;;;;;;;;;;;;;;1.65;85.57;97158.13;5075692;28;19916;-71
2022/02/17 11:15:00;;;;;;;;;;;;;;;1.67;85.53;97147.44;5094294;28;19970;-70
2022/02/17 11:17:25;;;;;;;;;;;;;;;1.66;85.49;97141.38;5075616;28;19939;-72
2022/02/17 11:19:54;;;;;;;;;;;;;;;1.63;85.26;97131.28;5075369;28;19915;-72
2022/02/17 11:22:20;;;;;;;;;;;;;;;1.64;85.58;97126.84;5075596;28;19923;-70
2022/02/17 11:24:52;;;;;;;;;;;;;;;1.68;85.18;97130.69;5093786;28;20012;-69
2022/02/17 11:27:18;;;;;;;;;;;;;;;1.65;85.28;97123.22;5093551;28;19968;-72
2022/02/17 11:29:44;;;;;;;;;;;;;;;1.62;85.37;97123.59;5093187;28;20307;-70
2022/02/17 11:32:16;;;;;;;;;;;;;;;1.67;85.40;97119.38;5093881;28;19923;-70
2022/02/17 11:34:46;;;;;;;;;;;;;;;1.73;85.18;97120.41;5093838;28;19924;-68
2022/02/17 11:37:20;;;;;;;;;;;;;;;1.74;85.00;97111.56;5093899;28;20014;-70
2022/02/17 11:40:15;;;;;;;;;;;;;;;1.69;84.93;97098.22;5075081;28;19916;-67
2022/02/17 11:42:45;;;;;;;;;;;;;;;1.67;85.43;97102.84;5090858;28;20383;-72
2022/02/17 11:45:20;;;;;;;;;;;;;;;1.73;84.98;97094.19;5093425;28;19920;-69
2022/02/17 11:48:06;;;;;;;;;;;;;;;1.73;84.92;97084.50;5093174;28;20407;-70
2022/02/17 11:50:42;;;;;;;;;;;;;;;1.66;84.81;97077.63;5092535;28;19923;-71
2022/02/17 11:53:26;;;;;;;;;;;;;;;1.57;85.06;97089.28;5094077;28;19924;-69
2022/02/17 11:55:52;;;;;;;;;;;;;;;1.45;85.27;97068.88;5094027;28;19923;-72
2022/02/17 11:58:43;;;;;;;;;;;;;;;1.45;85.63;97061.03;5094578;28;19939;-71
2022/02/17 12:01:21;;;;;;;;;;;;;;;1.48;85.54;97055.38;5091103;28;19969;-71
2022/02/17 12:03:58;;;;;;;;;;;;;;;1.50;85.28;97052.56;5093329;28;20015;-71
2022/02/17 12:06:33;;;;;;;;;;;;;;;1.45;85.63;97047.91;5092935;28;19916;-71
2022/02/17 12:08:58;;;;;;;;;;;;;;;1.51;85.20;97028.75;5075005;28;19916;-70
2022/02/17 12:11:28;;;;;;;;;;;;;;;1.47;85.80;97040.66;5093832;28;20306;-70
2022/02/17 12:13:53;;;;;;;;;;;;;;;1.43;85.39;97031.53;5093192;28;19923;-68
2022/02/17 12:16:35;;;;;;;;;;;;;;;1.41;85.53;97020.44;5093360;28;19916;-72
2022/02/17 12:19:10;;;;;;;;;;;;;;;1.36;85.59;97025.47;5092718;28;20347;-73
2022/02/17 12:21:37;;;;;;;;;;;;;;;1.35;85.81;97018.59;5074685;28;19938;-72
2022/02/17 12:24:03;;;;;;;;;;;;;;;1.36;85.63;97011.53;5092857;28;19922;-70
2022/02/17 12:26:40;;;;;;;;;;;;;;;1.36;85.75;97009.72;5092375;28;19916;-70
2022/02/17 12:29:33;;;;;;;;;;;;;;;1.39;86.12;96998.03;5092638;28;19943;-71
2022/02/17 12:31:59;;;;;;;;;;;;;;;1.37;85.79;96984.31;5092317;28;19969;-73
2022/02/17 12:34:26;;;;;;;;;;;;;;;1.39;86.04;96980.50;5092426;28;19923;-72
2022/02/17 12:36:52;;;;;;;;;;;;;;;1.37;85.87;96981.69;5092389;28;19919;-72
2022/02/17 12:39:17;;;;;;;;;;;;;;;1.36;85.85;96972.22;5074411;28;19923;-73
2022/02/17 12:41:56;;;;;;;;;;;;;;;1.38;86.42;96968.41;5075281;28;19916;-71
2022/02/17 12:44:34;;;;;;;;;;;;;;;1.38;86.17;96971.03;5092195;28;19920;-71
2022/02/17 12:47:00;;;;;;;;;;;;;;;1.33;85.95;96968.19;5092105;28;19959;-69
2022/02/17 12:49:29;;;;;;;;;;;;;;;1.31;86.34;96964.94;5092349;28;19951;-69
2022/02/17 12:52:07;;;;;;;;;;;;;;;1.30;86.14;96952.84;5074675;28;20429;-72
2022/02/17 12:54:32;;;;;;;;;;;;;;;1.20;86.34;96955.03;5092119;28;19923;-69
2022/02/17 12:57:15;;;;;;;;;;;;;;;1.16;86.29;96945.97;5074144;28;20394;-74
2022/02/17 12:59:44;;;;;;;;;;;;;;;1.11;86.77;96949.16;5074060;28;19940;-73